logo
App data

Everyday Genius: SquareLogic

The next generation of puzzle games is here! Combining simple arithmetic with colorful cages and logical problem solving, this new puzzle game makes sure you never have to guess—and you don’t have to be a math wiz!
Store | Hub | SteamDB | Site
Developer: TrueThought Publisher: TrueThought
Genre: Casual, Indie, Strategy
Languages: English
Tags: Casual (39), Puzzle (36), Indie (28), Strategy (26), Addictive (12), Logic (12), Relaxing (11), Masterpiece (6)
Category: Single-player, Steam Achievements, Steam Cloud, Stats, Steam Leaderboards
Release date: Oct 9, 2009
Price: $4.99
Score rank: 99% Userscore: 98% Old userscore: 98%
Owners: 0 .. 20,000
Peak concurrent players yesterday: 16
Playtime total: 10:15 (average) 10:00 (median)

Steam Spy is still in beta, so expect major bugs.

Owners data:

Access restricted.

This feature is only available to users with special access rights. Sorry.

If you want to proceed, you need to register or log in first and then back Steam Spy on Patreon. Look for Indie or Pro pledge.

Don't forget to use the same email as on Steam Spy!

Audience in 2 weeks:

Access restricted.

This feature is only available to users with special access rights. Sorry.

If you want to proceed, you need to register or log in first and then back Steam Spy on Patreon. Look for Indie or Pro pledge.

Don't forget to use the same email as on Steam Spy!

Peak daily concurrent players:

CCU data courtesy of SteamDB. Used with permission.

Hourly concurrent players:

Daily Twitch stats:

Hourly Twitch stats:

YouTube:

The views data is based on top 50 videos uploaded last week. Actual number of views might be more than the number shown.

The displayed number of videos uploaded yesterday is limited to 50, so if there were more videos uploaded, the number will still show 50.

If the game has commonly used word as its name (like "FEAR" or "Volume") its number of Youtube views might be wrong.

Games similar to this one:

# Game Release date
Price
Score rank
(Userscore / Metascore)
Owners
Players
Playtime (Median)
1 Quell May 14, 2015 $3.9999% (98%)0 .. 20,0000%00:00 (00:00)
2 Hidden in Plain Sight Jul 16, 2014 $5.9999% (98%)20,000 .. 50,0000%00:00 (00:00)
3 Carrie's Order Up! Sep 13, 2016 $2.9999% (98%)0 .. 20,0000%00:00 (00:00)
4 Night Blights Apr 15, 2016 $4.9999% (98%)0 .. 20,0000%00:00 (00:00)
5 Luxor Evolved Mar 1, 2012 $9.9997% (97%)50,000 .. 100,0000%00:00 (00:00)
6 HyperRogue Jan 16, 2015 $4.9995% (96%)20,000 .. 50,0000%00:00 (00:00)
7 Hustle Cat Mar 16, 2016 $19.9995% (96%)20,000 .. 50,0000%00:00 (00:00)
8 Letter Quest: Grimm's Journey Nov 20, 2014 $7.9995% (96%/73%)50,000 .. 100,0000%00:00 (00:00)
9 Overload May 31, 2018 $29.9993% (95%/74%)20,000 .. 50,00016.67%01:34 (01:30)
10 The Counting Kingdom Aug 5, 2014 $6.99N/A (N/A)0 .. 20,0000%00:00 (00:00)
11 A Good Snowman Is Hard To Build Feb 25, 2015 $9.9993% (95%)20,000 .. 50,0000%00:00 (00:00)
12 Unium Feb 3, 2015 $1.9993% (95%)20,000 .. 50,0000%00:00 (00:00)
13 Space Hole 2016 Sep 2, 2016 $0.99N/A (N/A)0 .. 20,0000%00:00 (00:00)
14 Moonlight Feb 5, 2016 $1.9993% (95%)0 .. 20,0000%00:00 (00:00)
15 Creeper World: Anniversary Edition Nov 16, 2016 $4.9993% (95%)0 .. 20,0000%00:00 (00:00)
16 Pictopix Jan 5, 2017 $6.9990% (94%)0 .. 20,0004.55%03:20 (01:06)
17 Chip's Challenge 2 May 28, 2015 $4.9990% (94%)20,000 .. 50,0000%00:00 (00:00)
18 Gateways Sep 13, 2012 $4.9987% (93%/72%)50,000 .. 100,0000%00:00 (00:00)
19 Swapperoo Dec 18, 2015 $4.99N/A (N/A)0 .. 20,0000%00:00 (00:00)
20 Girls Like Robots Feb 14, 2014 $6.99N/A (N/A)100,000 .. 200,0000%00:00 (00:00)
21 Modbox Apr 5, 2016 $14.9987% (93%)20,000 .. 50,0007.69%00:19 (00:12)
22 [the Sequence] Mar 30, 2016 $1.9987% (93%)0 .. 20,0000%00:00 (00:00)
23 Prelogate Dec 10, 2014 $3.9987% (93%)0 .. 20,0000%00:00 (00:00)
24 Goats on a Bridge Feb 6, 2015 $4.99N/A (N/A)50,000 .. 100,0002.25%00:45 (00:28)
25 Titans of Space 2.0 May 23, 2016 $7.9983% (92%)0 .. 20,0000%00:00 (00:00)
26 Dream Car Builder Sep 21, 2018 $14.9983% (92%)0 .. 20,0000%00:00 (00:00)
27 Earthtongue Apr 27, 2015 $4.9983% (92%)0 .. 20,0000%00:00 (00:00)
28 Strata May 29, 2014 $3.9983% (92%)20,000 .. 50,0000%00:00 (00:00)
29 Triple Town Dec 6, 2012 $9.9983% (92%)50,000 .. 100,0000%00:00 (00:00)
30 Cloudberry Kingdom Aug 2, 2013 $9.9983% (92%/67%)20,000 .. 50,0000%00:00 (00:00)
31 Unhack Feb 20, 2014 $3.9983% (92%)20,000 .. 50,0000%00:00 (00:00)
32 Windosill May 26, 2009 $2.9979% (91%)100,000 .. 200,0000%00:00 (00:00)
33 Oik 2 Mar 28, 2017 $0.6679% (91%)20,000 .. 50,0000.78%00:06 (00:02)
34 Grapple Mar 9, 2015 $3.4979% (91%)20,000 .. 50,0001.22%00:14 (00:04)
35 Soundodger+ Oct 11, 2013 $7.9979% (91%/78%)50,000 .. 100,0000%00:00 (00:00)
36 Tribloos 2 Jan 12, 2013 $4.9979% (91%)100,000 .. 200,0000.22%00:01 (00:00)
37 Crayon Physics Deluxe Jan 7, 2009 $19.9979% (91%/79%)500,000 .. 1,000,0000%00:00 (00:00)
38 LogiGun Aug 1, 2012 $4.9976% (90%)0 .. 20,0000%00:00 (00:00)
39 PANORAMICAL Sep 17, 2015 $9.9976% (90%)0 .. 20,0000%00:00 (00:00)
40 One Night Stand Nov 7, 2016 $2.9976% (90%)20,000 .. 50,0000%00:00 (00:00)
41 Cubot Jan 8, 2015 $1.9976% (90%)20,000 .. 50,0000%00:00 (00:00)
42 Sokobond Jul 21, 2014 $9.9976% (90%/82%)20,000 .. 50,0000%00:00 (00:00)
43 Frog Climbers Oct 6, 2016 $6.99N/A (N/A)20,000 .. 50,0000.88%00:07 (00:02)
44 On Rusty Trails Jun 13, 2016 $12.9976% (90%/77%)50,000 .. 100,0000%00:00 (00:00)
45 Mu Cartographer May 29, 2016 $4.9976% (90%)0 .. 20,0000%00:00 (00:00)
46 Koala Kids Jun 22, 2015 $1.9973% (89%)20,000 .. 50,0000%00:00 (00:00)
47 Parallax Mar 10, 2015 $4.9973% (89%/68%)0 .. 20,0000%00:00 (00:00)
48 The Reject Demon: Toko Chapter 0 — Prelude May 9, 2015 $4.9973% (89%)0 .. 20,0000%00:00 (00:00)
49 CarX Drift Racing Online Nov 17, 2017 $9.9973% (89%)100,000 .. 200,00019.54%02:32 (02:51)
50 This Starry Midnight We Make Jun 1, 2015 $9.99N/A (N/A)0 .. 20,0000%00:00 (00:00)
51 12 Labours of Hercules V: Kids of Hellas (Platinum Edition) Jun 17, 2016 $2.9973% (89%)20,000 .. 50,0002.3%02:50 (01:53)
52 Forgotten, Not Lost - A Kinetic Novel Apr 2, 2016 $1.9973% (89%)50,000 .. 100,0000.66%04:33 (01:31)
53 Beyond Gravity Sep 23, 2014 $1.9970% (88%)20,000 .. 50,0001.32%00:06 (00:02)
54 Glowfish Sep 30, 2011 $9.9970% (88%)50,000 .. 100,0000.63%00:13 (00:04)
55 Bob Was Hungry Aug 19, 2015 $9.9970% (88%)20,000 .. 50,0000%00:00 (00:00)
56 Rooms: The Unsolvable Puzzle May 1, 2015 $14.9970% (88%/66%)0 .. 20,0000%00:00 (00:00)
57 Asphyxia Aug 4, 2015 $5.9967% (87%)20,000 .. 50,0000%00:00 (00:00)
58 Masochisia Oct 9, 2015 $3.1967% (87%/68%)0 .. 20,0000%00:00 (00:00)
59 Dots eXtreme Jun 12, 2016 $1.99N/A (N/A)20,000 .. 50,0000.69%03:02 (01:00)
60 Army of Pixels Oct 29, 2015 $4.99N/A (N/A)0 .. 20,0000%00:00 (00:00)
61 Golf for Workgroups Apr 6, 2017 $4.99N/A (N/A)0 .. 20,0000%00:00 (00:00)
62 Vampires: Guide Them to Safety! Oct 22, 2014 $4.99N/A (N/A)0 .. 20,0000%00:00 (00:00)
63 The Shape Of Heart Oct 25, 2016 $2.9967% (87%)0 .. 20,0000%00:00 (00:00)
64 Thrillville: Off the Rails Oct 9, 2007 $9.9967% (87%/70%)20,000 .. 50,0000%00:00 (00:00)
65 Never give up! Dec 29, 2016 $2.9967% (87%)0 .. 20,0000%00:00 (00:00)
66 PixelJunk Eden Feb 2, 2012 $9.9964% (86%/81%)200,000 .. 500,0000%00:00 (00:00)
67 Sophie's Curse Mar 16, 2016 $4.9964% (86%)50,000 .. 100,0000%00:00 (00:00)
68 Spy Chameleon - RGB Agent Jun 11, 2014 $4.9964% (86%)50,000 .. 100,0000%00:00 (00:00)
69 Cursed Sight Aug 3, 2015 $5.9964% (86%)0 .. 20,0000%00:00 (00:00)
70 Surfingers Jan 27, 2016 $1.9961% (85%)50,000 .. 100,0001.15%00:21 (00:10)
71 CrossCells May 26, 2017 $2.9961% (85%)20,000 .. 50,0000%00:00 (00:00)
72 Counter Fight Nov 14, 2016 $3.9961% (85%)0 .. 20,0000%00:00 (00:00)
73 Magma Tsunami Jun 1, 2016 $0.99N/A (N/A)100,000 .. 200,0000.43%01:52 (00:59)
74 Dominique Pamplemousse Mar 11, 2014 $0.9961% (85%/62%)20,000 .. 50,0000%00:00 (00:00)
75 BAD END Nov 25, 2015 $1.9961% (85%)0 .. 20,0000%00:00 (00:00)
76 Sentinel 4: Dark Star Aug 13, 2015 $6.99N/A (N/A)0 .. 20,0000%00:00 (00:00)
77 Dead Man's Draw Feb 6, 2014 $6.9959% (84%)20,000 .. 50,0004.55%02:19 (01:32)
78 Asteroids Minesweeper Jul 8, 2016 $1.99N/A (N/A)0 .. 20,0000%00:00 (00:00)
79 Crash Drive 2 May 28, 2015 $4.9959% (84%)50,000 .. 100,0000.52%04:32 (01:30)
80 RePete Nov 1, 2015 $1.99N/A (N/A)0 .. 20,0000%00:00 (00:00)
81 The Treasures of Montezuma 4 Oct 9, 2013 $6.9959% (84%)20,000 .. 50,0003.64%00:30 (00:20)
82 Steam and Metal Feb 9, 2015 $4.99N/A (N/A)0 .. 20,0000%00:00 (00:00)
83 Gridworld Dec 29, 2015 $0.9956% (83%)0 .. 20,0000%00:00 (00:00)
84 Timore 5 Aug 25, 2016 $7.99N/A (N/A)0 .. 20,0000%00:00 (00:00)
85 Job the Leprechaun Jul 31, 2015 $2.99N/A (N/A)20,000 .. 50,0001.22%02:39 (01:06)
86 Governor of Poker 2 - Premium Edition Oct 11, 2010 $14.9956% (83%)20,000 .. 50,0000%00:00 (00:00)
87 Cyto Jul 10, 2014 $3.99N/A (N/A)20,000 .. 50,0000.95%00:10 (00:03)
88 ISLANDS: Non-Places Nov 17, 2016 $4.9954% (82%)20,000 .. 50,0000%00:00 (00:00)
89 Blocks That Matter Aug 19, 2011 $4.9954% (82%/72%)200,000 .. 500,0000%00:00 (00:00)
90 Collisions Jul 28, 2015 $3.9954% (82%)20,000 .. 50,0000%00:00 (00:00)
91 Cute Things Dying Violently Sep 2, 2015 $2.99N/A (N/A)0 .. 20,0000%00:00 (00:00)
92 SnakEscape Feb 12, 2016 $7.99N/A (N/A)0 .. 20,00010.81%03:57 (03:01)
93 Stay Alight Mar 2, 2015 $3.9952% (81%)20,000 .. 50,0000%00:00 (00:00)
94 Sym May 7, 2015 $7.99N/A (N/A/61%)0 .. 20,0000%00:00 (00:00)
95 Guided Meditation VR Oct 1, 2016 $14.9952% (81%)0 .. 20,0000%00:00 (00:00)
96 The Floor is Jelly May 30, 2014 $9.9952% (81%/83%)20,000 .. 50,0002.7%02:24 (00:48)
97 Gravity Cat Jul 13, 2016 $2.9952% (81%)20,000 .. 50,0000%00:00 (00:00)
98 Cash_Out May 27, 2015 $4.99N/A (N/A)0 .. 20,0000%00:00 (00:00)
99 Ancients of Ooga May 20, 2011 $9.99N/A (N/A)20,000 .. 50,0000%00:00 (00:00)
100 Ricerca VR May 1, 2016 $0.99N/A (N/A)0 .. 20,0000%00:00 (00:00)
101 Until I Have You Apr 4, 2016 $13.9949% (80%)0 .. 20,0000%00:00 (00:00)
102 Brick Inventions Mar 23, 2016 $4.99N/A (N/A)0 .. 20,0000%00:00 (00:00)
103 Automation - The Car Company Tycoon Game Mar 12, 2015 $29.9949% (80%)50,000 .. 100,00016.07%03:28 (04:57)
104 Blueprint Tycoon May 13, 2016 $2.9949% (80%)50,000 .. 100,0000.99%00:22 (00:07)
105 Auditorium Feb 28, 2012 $6.9949% (80%)50,000 .. 100,0000%00:00 (00:00)
106 Fantastic Contraption Apr 5, 2016 $19.99N/A (N/A)50,000 .. 100,0000%00:00 (00:00)
107 Masky Dec 16, 2016 $0.9949% (80%)0 .. 20,0000%00:00 (00:00)
108 Space Drifters 2D Mar 28, 2016 $0.99N/A (N/A)20,000 .. 50,0000%00:00 (00:00)
109 Dungeon Painter Studio Feb 26, 2017 $14.9947% (79%)20,000 .. 50,00028%08:21 (11:01)
110 Terraform May 8, 2015 $2.99N/A (N/A)0 .. 20,0000%00:00 (00:00)
111 Star Sky - ブルームーン Oct 23, 2015 $3.9947% (79%)0 .. 20,0000%00:00 (00:00)
112 Whirligig VR Media Player Apr 4, 2016 $3.9945% (78%)20,000 .. 50,0003.03%00:39 (00:13)
113 Farm for your Life Jun 5, 2013 $9.9945% (78%)50,000 .. 100,0000%00:00 (00:00)
114 Farm Frenzy 4 Aug 1, 2013 $6.9945% (78%)20,000 .. 50,0000%00:00 (00:00)
115 Particulars Nov 19, 2014 $5.99N/A (N/A/74%)20,000 .. 50,0000%00:00 (00:00)
116 Fate Tectonics Sep 9, 2015 $0.9943% (77%)0 .. 20,0001.56%00:44 (00:14)
117 SinaRun Oct 26, 2015 $2.9943% (77%)0 .. 20,0006.67%34:17 (11:25)
118 Pretentious Game May 20, 2014 $1.9943% (77%)20,000 .. 50,0000%00:00 (00:00)
119 Puzzler World 2 Oct 24, 2011 $4.9943% (77%)20,000 .. 50,0000%00:00 (00:00)
120 Feesh Feb 1, 2016 $0.9943% (77%)0 .. 20,0003.45%00:30 (00:10)
121 Farm Frenzy: Hurricane Season Apr 1, 2015 $6.99N/A (N/A)0 .. 20,0000%00:00 (00:00)
122 PRINCIPIA: Master of Science Sep 9, 2016 $9.9943% (77%)0 .. 20,0000%00:00 (00:00)
123 Dodge Mar 16, 2015 $1.99N/A (N/A)0 .. 20,0000%00:00 (00:00)
124 Beeftacular Aug 26, 2016 $2.9943% (77%)0 .. 20,0003.7%03:10 (01:03)
125 ConflictCraft Dec 8, 2016 $2.99N/A (N/A)20,000 .. 50,0000%00:00 (00:00)
126 Sig.NULL Sep 27, 2016 $1.99N/A (N/A)100,000 .. 200,0000%00:00 (00:00)
127 Where are my Internets? Dec 16, 2016 $2.99N/A (N/A)20,000 .. 50,00012.9%07:29 (05:02)
128 Rescue Team 5 Sep 30, 2015 $3.99N/A (N/A)20,000 .. 50,0000%00:00 (00:00)
129 Pixel Puzzles 2: Birds Feb 20, 2015 $9.9941% (76%)200,000 .. 500,0000.42%01:20 (00:53)
130 Kombine Oct 14, 2016 $0.9939% (75%)20,000 .. 50,0001.92%01:17 (00:51)
131 Prehistoric Tales May 25, 2016 $2.99N/A (N/A)0 .. 20,0000%00:00 (00:00)
132 Access Denied Dec 16, 2016 $2.9939% (75%)0 .. 20,0000%00:00 (00:00)
133 The Deletion Jul 30, 2015 $1.9939% (75%)20,000 .. 50,0000%00:00 (00:00)
134 Sailaway - The Sailing Simulator Feb 27, 2018 $39.9939% (75%)0 .. 20,0000%00:00 (00:00)
135 Crazy Plant Shop Aug 4, 2014 $4.9939% (75%)20,000 .. 50,0000%00:00 (00:00)
136 Wars Across The World May 4, 2017 $9.99N/A (N/A)0 .. 20,0000%00:00 (00:00)
137 Pythagoria Jan 22, 2016 $0.5937% (74%)0 .. 20,0000%00:00 (00:00)
138 MOAI 2: Path to Another World Apr 11, 2015 $7.99N/A (N/A)0 .. 20,0000%00:00 (00:00)
139 Smooth Operators Jan 14, 2013 $2.9935% (73%)20,000 .. 50,0000%00:00 (00:00)
140 Bunny Hop League Apr 27, 2017 $5.9935% (73%)20,000 .. 50,0000%00:00 (00:00)
141 Luxor: 5th Passage Jan 25, 2011 $9.9935% (73%)50,000 .. 100,0000%00:00 (00:00)
142 Riddles Of The Past Jul 22, 2016 $6.9934% (72%)0 .. 20,0000%00:00 (00:00)
143 Satellite Repairman Feb 2, 2017 $3.99N/A (N/A)0 .. 20,0000%00:00 (00:00)
144 Crashed Lander Jun 17, 2014 $4.99N/A (N/A)0 .. 20,0000%00:00 (00:00)
145 Sportsfriends Dec 19, 2014 $14.99N/A (N/A)20,000 .. 50,0000%00:00 (00:00)
146 Laserlife Sep 22, 2015 $14.99N/A (N/A)0 .. 20,0003.13%00:11 (00:03)
147 Lunnye Devitsy Jul 1, 2009 $4.9932% (71%)20,000 .. 50,0000%00:00 (00:00)
148 InFlux Jul 23, 2013 $9.9932% (71%)20,000 .. 50,0000%00:00 (00:00)
149 Typefighters (Steam Edition) Apr 18, 2016 $1.9932% (71%)20,000 .. 50,0000%00:00 (00:00)
150 Axel & Pixel Oct 6, 2010 $4.99N/A (N/A)20,000 .. 50,0000%00:00 (00:00)
151 Caravanserail Feb 26, 2016 $2.99N/A (N/A)0 .. 20,0001.54%04:28 (01:29)
152 Music Inside: A VR Rhythm Game Sep 5, 2016 $9.9930% (70%)0 .. 20,0000%00:00 (00:00)
153 Point Perfect Jul 17, 2014 $4.9930% (70%)20,000 .. 50,0001.18%04:10 (01:23)
154 Zipple World Jan 19, 2016 $4.99N/A (N/A)0 .. 20,0000%00:00 (00:00)
155 Super Lemonade Factory Mar 15, 2012 $4.99N/A (N/A)20,000 .. 50,0000%00:00 (00:00)
156 Viking Brothers Apr 23, 2014 $9.99N/A (N/A)0 .. 20,0000%00:00 (00:00)
157 Over The Void Nov 11, 2014 $4.9929% (69%)20,000 .. 50,0001.96%02:26 (00:48)
158 Cibele Nov 2, 2015 $8.9929% (69%/71%)50,000 .. 100,0000%00:00 (00:00)
159 Our Love Will Grow Dec 4, 2015 $4.9927% (68%)20,000 .. 50,0000%00:00 (00:00)
160 Pester Jan 25, 2013 $0.9927% (68%)100,000 .. 200,0000%00:00 (00:00)
161 Storm Jun 27, 2013 $9.9927% (68%/63%)20,000 .. 50,0000%00:00 (00:00)
162 Love in the Glen Jun 9, 2016 $5.99N/A (N/A)20,000 .. 50,0001.28%00:11 (00:03)
163 Strategy & Tactics: Dark Ages Aug 4, 2017 $14.9927% (68%)20,000 .. 50,0000%00:00 (00:00)
164 JiPS Apr 19, 2016 $2.99N/A (N/A)20,000 .. 50,0000%00:00 (00:00)
165 1931: Scheherazade at the Library of Pergamum Mar 26, 2015 $14.9926% (67%)0 .. 20,0000%00:00 (00:00)
166 Totally Unbalanced Jul 29, 2016 $2.99N/A (N/A)0 .. 20,0000%00:00 (00:00)
167 One Last Chance Apr 7, 2016 $3.99N/A (N/A)20,000 .. 50,0000%00:00 (00:00)
168 CrossWorlds: Escape Oct 12, 2016 $14.9926% (67%)0 .. 20,0000%00:00 (00:00)
169 Mind Games Mar 4, 2016 $2.9926% (67%)0 .. 20,0000%00:00 (00:00)
170 Quantz Sep 3, 2009 $9.99N/A (N/A/67%)20,000 .. 50,0000%00:00 (00:00)
171 Party Saboteurs: After Party Mar 31, 2016 $9.99N/A (N/A)0 .. 20,0000%00:00 (00:00)
172 Mines of Mars Sep 10, 2018 $6.99N/A (N/A)0 .. 20,0000%00:00 (00:00)
173 Lift It Jan 20, 2017 $4.99N/A (N/A)50,000 .. 100,0000.53%08:15 (02:45)
174 Reach for the Sun May 6, 2013 $4.9924% (66%)20,000 .. 50,0000%00:00 (00:00)
175 Castles Oct 9, 2015 $2.99N/A (N/A)0 .. 20,0000%00:00 (00:00)
176 Painters Guild Sep 1, 2015 $9.9923% (65%)20,000 .. 50,0000%00:00 (00:00)
177 Wildlife Park 2 - Horses Oct 12, 2007 $2.79N/A (N/A)0 .. 20,0000%00:00 (00:00)
178 Restaurant Empire II May 27, 2009 $19.9922% (64%/64%)50,000 .. 100,0000%00:00 (00:00)
179 Motorbike May 9, 2011 $9.9922% (64%)0 .. 20,0000%00:00 (00:00)
180 Highborn Feb 19, 2013 $1.9922% (64%)0 .. 20,0000%00:00 (00:00)
181 The Treasures of Montezuma 3 May 19, 2011 $3.9922% (64%)20,000 .. 50,0000%00:00 (00:00)
182 Metrocide Oct 20, 2014 $12.99N/A (N/A/68%)20,000 .. 50,0000%00:00 (00:00)
183 Trino Jan 27, 2011 $4.99N/A (N/A)0 .. 20,0000%00:00 (00:00)
184 Herding Dog Dec 25, 2015 $2.99N/A (N/A)0 .. 20,0000%00:00 (00:00)
185 Marble Duel Nov 12, 2015 $4.9919% (62%)50,000 .. 100,0000%00:00 (00:00)
186 Winexy Jan 13, 2017 $0.9919% (62%)20,000 .. 50,0000%00:00 (00:00)
187 Annie Amber Jun 17, 2016 $2.99N/A (N/A)0 .. 20,0000%00:00 (00:00)
188 Goodnight Butcher Dec 18, 2015 $1.99N/A (N/A)20,000 .. 50,0000%00:00 (00:00)
189 StarFringe: Adversus Apr 5, 2016 N/AN/A (N/A)20,000 .. 50,0000%00:00 (00:00)
190 Power of Love Jul 21, 2015 $4.9917% (60%)20,000 .. 50,0000%00:00 (00:00)
191 Pixel Survivors May 5, 2016 $3.9917% (60%)50,000 .. 100,0000%00:00 (00:00)
192 Meadowland Oct 22, 2014 $3.99N/A (N/A)0 .. 20,0000%00:00 (00:00)
193 Townopolis Oct 19, 2008 $3.9917% (60%)20,000 .. 50,0000%00:00 (00:00)
194 Wildlife Park 2 - Dino World Mar 30, 2012 $3.9915% (58%)20,000 .. 50,0000%00:00 (00:00)
195 Boss Monster Apr 28, 2016 $4.9914% (57%)20,000 .. 50,0000%00:00 (00:00)
196 Color Syndrome Jun 20, 2016 $0.99N/A (N/A)20,000 .. 50,0000%00:00 (00:00)
197 Way of Gold and Steel Aug 17, 2015 $8.9913% (56%)0 .. 20,0000%00:00 (00:00)
198 Rolling Shapes Jun 5, 2015 $0.99N/A (N/A)0 .. 20,0000%00:00 (00:00)
199 Chunks Apr 11, 2016 $19.99N/A (N/A)0 .. 20,0000%00:00 (00:00)
200 Drizzlepath Mar 12, 2015 $1.4912% (54%)0 .. 20,0000%00:00 (00:00)
201 Bunny & Piggy Dec 1, 2016 $0.9912% (54%)50,000 .. 100,0000.56%04:31 (01:30)
202 Wildlife Park 3 May 12, 2014 $9.9912% (54%)50,000 .. 100,0000%00:00 (00:00)
203 Dance Magic Feb 15, 2016 $9.99N/A (N/A)0 .. 20,0000%00:00 (00:00)
204 Hired Ops Oct 21, 2016 $9.9912% (54%)20,000 .. 50,0003.33%00:32 (00:10)
205 Backgammon Blitz Nov 12, 2015 $3.9912% (54%)0 .. 20,0000%00:00 (00:00)
206 Sky to Fly: Soulless Leviathan Jul 22, 2016 $3.99N/A (N/A)0 .. 20,0000%00:00 (00:00)
207 Reptilian Rebellion Aug 8, 2016 $0.99N/A (N/A)20,000 .. 50,0000.82%03:18 (01:06)
208 Gravi Oct 8, 2013 $4.9911% (53%)0 .. 20,0000%00:00 (00:00)
209 Arctic alive Jan 29, 2016 $1.9911% (53%)0 .. 20,0000%00:00 (00:00)
210 Pointless Feb 22, 2016 Free10% (52%)0 .. 20,0003.33%16:38 (05:32)
211 Quantum Rush Champions Dec 4, 2014 $9.9910% (52%)20,000 .. 50,0001.04%21:55 (07:18)
212 Pressured Jul 18, 2014 $2.9910% (51%)200,000 .. 500,0000%00:00 (00:00)
213 The Good Life Nov 2, 2012 $9.9910% (51%)0 .. 20,0000%00:00 (00:00)
214 Cosmonautica Jul 31, 2015 $9.9910% (51%)100,000 .. 200,0000%00:00 (00:00)
215 Rage Runner May 16, 2014 $4.99N/A (N/A)0 .. 20,0002%04:41 (01:33)
216 Terra Mystica Jun 8, 2017 $14.999% (50%)0 .. 20,0000%00:00 (00:00)
217 Autumn Sep 23, 2014 $2.99N/A (N/A)50,000 .. 100,0000%00:00 (00:00)
218 Racecraft Mar 4, 2016 Free9% (50%)0 .. 20,0003.57%11:04 (07:22)
219 Rigonauts Aug 7, 2012 $9.998% (48%/60%)0 .. 20,0000%00:00 (00:00)
220 Wildlife Park 2 - Fantasy Nov 15, 2013 $0.998% (48%)50,000 .. 100,0000%00:00 (00:00)
221 Astro Emporia Feb 2, 2015 $0.99N/A (N/A)20,000 .. 50,0001.59%05:49 (01:56)
222 The Dolls: Reborn May 25, 2016 $4.998% (47%)50,000 .. 100,0000%00:00 (00:00)
223 Ninja Stealth 2 Jan 30, 2017 $0.997% (46%)20,000 .. 50,0000.89%08:15 (02:45)
224 Weapons Genius Jul 7, 2015 $4.997% (46%)100,000 .. 200,0000.24%00:07 (00:02)
225 Red Goblin: Cursed Forest May 15, 2015 $4.99N/A (N/A)20,000 .. 50,0000%00:00 (00:00)
226 Luke Sidewalker Nov 25, 2016 $0.99N/A (N/A)50,000 .. 100,0000%00:00 (00:00)
227 Evolution Jun 6, 2016 FreeN/A (N/A)20,000 .. 50,0006.45%01:00 (00:39)
228 Fiery Disaster Nov 7, 2016 $1.99N/A (N/A)0 .. 20,0006.25%00:30 (00:10)
229 Castle Jan 7, 2015 $4.99N/A (N/A)50,000 .. 100,0000%00:00 (00:00)
230 Oil Enterprise Apr 20, 2016 $19.996% (44%)0 .. 20,0000%00:00 (00:00)
231 iREC Jan 16, 2017 Free6% (43%)20,000 .. 50,0001.55%16:23 (10:55)
232 Melting Hearts: Our Love Will Grow 2 Apr 29, 2016 N/AN/A (N/A)20,000 .. 50,0000%00:00 (00:00)
233 Arcadia Dec 2, 2010 $4.995% (42%)0 .. 20,0000%00:00 (00:00)
234 Farm Life: Natures Adventure Aug 8, 2016 $0.99N/A (N/A)50,000 .. 100,0000%00:00 (00:00)
235 Mech Marines: Steel March Jan 9, 2015 $7.99N/A (N/A)0 .. 20,0000%00:00 (00:00)
236 Hide and Secret Treasure of the Ages Mar 15, 2007 $2.99N/A (N/A)0 .. 20,0000%00:00 (00:00)
237 Hippocampal: The White Sofa May 27, 2014 $4.993% (36%)0 .. 20,0000%00:00 (00:00)
238 Streets of Chaos Jan 23, 2015 $0.99N/A (N/A)100,000 .. 200,0000%00:00 (00:00)
239 Don't Chat With Strangers Jan 6, 2017 $4.993% (34%)0 .. 20,0000%00:00 (00:00)
240 Age of Castles: Warlords May 15, 2015 $1.99N/A (N/A)0 .. 20,0000%00:00 (00:00)
241 Burst Mar 14, 2016 $1.99N/A (N/A)100,000 .. 200,0000.23%00:01 (00:00)
242 The Legions of Rome Sep 16, 2016 $2.99N/A (N/A)0 .. 20,0000%00:00 (00:00)
243 Robot vs Birds Zombies Jul 23, 2015 $0.992% (31%)0 .. 20,0000%00:00 (00:00)
244 Labyrinth Simulator Sep 21, 2015 $4.99N/A (N/A)0 .. 20,0000%00:00 (00:00)
245 The Housewife Aug 25, 2016 $4.99N/A (N/A)200,000 .. 500,0000%00:00 (00:00)
246 Wolf Simulator Nov 16, 2016 $3.991% (27%)50,000 .. 100,0004.4%04:26 (04:32)
247 Triangle Jan 30, 2017 $1.99N/A (N/A)100,000 .. 200,0000%00:00 (00:00)
248 Stickmageddon Jun 27, 2017 $0.99N/A (N/A)20,000 .. 50,0000%00:00 (00:00)

Tags over time:

Access restricted.

This feature is only available to users with special access rights. Sorry.

If you want to proceed, you need to register or log in first and then back Steam Spy on Patreon. Look for Indie or Pro pledge.

Don't forget to use the same email as on Steam Spy!

Owners of this game also own:

Access restricted.

This feature is only available to users with special access rights. Sorry.

If you want to proceed, you need to register or log in first and then back Steam Spy on Patreon. Look for Indie or Pro pledge.

Don't forget to use the same email as on Steam Spy!

Playtime distribution:

Access restricted.

This feature is only available to users with special access rights. Sorry.

If you want to proceed, you need to register or log in first and then back Steam Spy on Patreon. Look for Indie or Pro pledge.

Don't forget to use the same email as on Steam Spy!

Playtime (2 weeks):

Access restricted.

This feature is only available to users with special access rights. Sorry.

If you want to proceed, you need to register or log in first and then back Steam Spy on Patreon. Look for Indie or Pro pledge.

Don't forget to use the same email as on Steam Spy!

User reviews:

Login required.

Please register or log in to see this information.